Highlands Peak, California Weather observations

Data are for observation ending at time listed.
 Day   Time    Ave.   Ave.  Ave.  Vector   Max.   Stn.    Total    Solar   Ave.  
  of    of     Air    Rel.  Wind   Wind    Wind   Baro.  Precip.   Rad.    Soil  
Year   Day     Temp.  Hum.  Speed  Dir.    Gust   Pres.                    Temp. 
2016   (PST)    F      %     mph   deg.    mph     mb.     in.     W/m2     F   
------------------------------------------------------------------------------
 269   22:50   81.7     8    2.8   112      3.5   932.2    0.00       0    81.7
 269   23:00   82.1     8    2.4   110      3.7   932.2    0.00       0    81.5
 269   23:10   81.8     8    3.9   111      4.9   932.2    0.00       0    81.3
 269   23:20   81.7     8    4.6   104      5.6   932.1    0.00       0    81.0
 269   23:30   81.2     8    3.8    81      5.4   932.1    0.00       0    80.9
 269   23:40   81.1     8    4.2    93      5.3   932.0    0.00       0    80.8
 269   23:50   81.2     8    4.5   103      5.3   931.9    0.00       0    80.5
 270    0:00   81.6     8    4.6   115      5.4   931.9    0.00       0    80.3
 270    0:10   81.8     8    5.0   110      5.7   931.9    0.00       0    80.1
 270    0:20   81.3     8    4.9   104      6.4   931.9    0.00       0    79.9
 270    0:30   81.0     8    4.2    95      5.1   931.9    0.00       0    79.8
 270    0:40   81.2     8    2.7    87      4.5   931.8    0.00       0    79.6
 270    0:50   81.2     8    2.5    36      3.9   931.6    0.00       0    79.5
 270    1:00   79.8     8    4.4    56      6.1   931.6    0.00       0    79.4
 270    1:10   80.0     8    4.5    49      6.0   931.7    0.00       0    79.2
 270    1:20   79.9     8    3.7    54      5.5   931.7    0.00       0    79.1
 270    1:30   81.0     8    3.5    69      5.2   931.7    0.00       0    78.9
 270    1:40   81.1     8    1.9   101      3.2   931.5    0.00       0    78.8
 270    1:50   81.9     8    2.6   116      3.4   931.5    0.00       0    78.6
 270    2:00   82.0     8    2.2   126      2.8   931.5    0.00       0    78.4
 270    2:10   81.9     8    2.9   110      3.4   931.4    0.00       0    78.3
 270    2:20   81.5     8    3.0   112      3.4   931.4    0.00       0    78.2
 270    2:30   82.1     8    2.0   123      2.6   931.3    0.00       0    77.9
 270    2:40   82.5     7    1.2   106      2.0   931.2    0.00       0    77.8
 270    2:50   82.2     8    1.2   152      1.9   931.2    0.00       0    77.6
 270    3:00   82.3     7    2.2   187      3.2   931.1    0.00       0    77.5
 270    3:10   82.1     8    2.9   174      3.5   931.1    0.00       0    77.4
 270    3:20   82.0     8    2.4   156      3.0   931.1    0.00       0    77.3
 270    3:30   81.6     8    2.5   111      3.0   931.2    0.00       0    77.2
 270    3:40   81.8     8    3.0   118      3.8   931.2    0.00       0    77.0
 270    3:50   81.7     8    3.3   134      3.9   931.3    0.00       0    76.9
 270    4:00   81.6     8    3.5   111      4.2   931.3    0.00       0    76.8
 270    4:10   81.2    10    4.0    90      5.6   931.3    0.00       0    76.6
 270    4:20   81.2    11    3.5    74      5.1   931.3    0.00       0    76.5
 270    4:30   81.0    12    3.2    80      6.1   931.3    0.00       0    76.4
 270    4:40   81.3    11    2.0    84      4.2   931.4    0.00       0    76.3
 270    4:50   81.9    11    1.9   197      5.3   931.4    0.00       0    76.1
 270    5:00   81.7    11    3.3   177      5.7   931.5    0.00       0    76.0
 270    5:10   81.2    11    3.1   163      5.1   931.6    0.00       0    75.9
 270    5:20   81.1    11    3.5   124      5.2   931.7    0.00       0    75.8
 270    5:30   81.5    11    3.8   100      6.3   931.7    0.00       0    75.7
 270    5:40   80.9    11    3.8    84      5.7   931.8    0.00       0    75.6
 270    5:50   80.9    11    3.8   110      5.3   931.9    0.00       1    75.5
 270    6:00   80.9    11    4.2   108      5.8   932.0    0.00       3    75.3
 270    6:10   80.2    11    5.0    91      6.1   932.1    0.00       7    75.2
 270    6:20   80.1    12    5.8    96      7.6   932.1    0.00      11    75.1
 270    6:30   80.4    12    6.0    99      7.1   932.1    0.00      14    74.9
 270    6:40   79.9    12    5.9    88      7.5   932.2    0.00      18    74.9
 270    6:50   80.5    12    7.6   100      9.4   932.3    0.00     125    74.7
 270    7:00   81.7    12    7.8   100      9.4   932.4    0.00     190    74.5
 270    7:10   82.3    12    7.6    95      8.8   932.5    0.00     229    74.3
 270    7:20   82.8    12    7.3   111      9.9   932.6    0.00     268    74.2
 270    7:30   83.3    12    8.0   117     10.9   932.7    0.00     306    74.1
 270    7:40   83.6    12    7.3   114     10.7   932.7    0.00     343    74.0
 270    7:50   84.3    12    6.9   119      9.8   932.8    0.00     381    74.0
 270    8:00   84.8    12    6.4   127      9.7   932.9    0.00     417    74.0
 270    8:10   85.3    11    5.5   135      8.9   933.0    0.00     453    74.1
 270    8:20   86.0    11    4.8   128      9.6   933.1    0.00     487    74.1
 270    8:30   86.8    11    5.1   136     11.8   933.1    0.00     520    74.2
 270    8:40   86.6    11    5.7   132     10.4   933.2    0.00     552    74.4
 270    8:50   87.4    11    5.8   123     12.2   933.2    0.00     583    74.5
 270    9:00   87.9    11    5.9   139     12.9   933.2    0.00     613    74.6
 270    9:10   87.3    12    6.9   121     14.2   933.3    0.00     640    74.8
 270    9:20   88.5    11    6.2   110     12.8   933.3    0.00     670    74.9
 270    9:30   89.0    10    8.7   113     15.3   933.3    0.00     697    75.2
 270    9:40   88.9     9    9.9   114     15.5   933.3    0.00     720    75.4
 270    9:50   88.3    10   13.1   116     21.9   933.2    0.00     741    75.7
 270   10:00   88.2    10   11.2   118     19.3   933.2    0.00     762    76.0
 270   10:10   88.3    10   15.8   120     22.7   933.1    0.00     781    76.3
 270   10:20   88.1     9   17.9   108     27.6   933.1    0.00     799    76.7
 270   10:30   88.9     9   14.6   105     24.0   933.1    0.00     815    77.1
 270   10:40   90.3     9    9.1   111     15.5   933.1    0.00     828    77.3
 270   10:50   90.3     9   10.8   123     18.0   933.0    0.00     840    77.6
 270   11:00   90.8     8   12.0   113     17.2   932.9    0.00     850    77.9
 270   11:10   90.3     8   13.2   120     21.6   932.9    0.00     859    78.3
 270   11:20   90.4     8   15.5   118     25.1   932.8    0.00     866    78.7
 270   11:30   89.4     9   17.3   112     25.6   932.7    0.00     871    79.2
 270   11:40   91.4     8   12.0    86     20.2   932.8    0.00     873    79.4
 270   11:50   91.4     9    6.7   129     14.2   932.8    0.00     875    79.7
 270   12:00   91.0     9   10.0   133     21.5   932.7    0.00     875    80.0
 270   12:10   90.9     8   15.5   123     26.4   932.5    0.00     874    80.5
 270   12:20   90.4     9   10.6   140     27.5   932.4    0.00     870    80.9
 270   12:30   90.1    10    9.5   173     15.7   932.3    0.00     864    81.2
 270   12:40   89.7    10    8.8   180     15.3   932.1    0.00     857    81.6
 270   12:50   90.0    10    8.2   162     16.9   932.1    0.00     848    81.9
 270   13:00   89.9    10    7.4   177     17.0   932.0    0.00     835    82.3
 270   13:10   90.6    10    7.5   184     15.3   931.9    0.00     821    82.6
 270   13:20   91.1    10    7.5   203     14.9   931.9    0.00     807    83.0
 270   13:30   89.7    10    8.6   177     14.9   931.8    0.00     791    83.6
 270   13:40   90.0    10    8.5   192     14.6   931.7    0.00     773    83.9
 270   13:50   89.5    10    6.8   187     11.2   931.7    0.00     754    84.3
 270   14:00   89.4    10    7.7   184     14.4   931.6    0.00     736    84.8
 270   14:10   89.7    10    6.7   192     12.1   931.6    0.00     713    85.2
 270   14:20   89.7    10    5.2   204      9.9   931.6    0.00     688    85.6
 270   14:30   91.0    10    5.1   207     10.9   931.5    0.00     644    86.0
 270   14:40   90.5    10    6.3   226     12.3   931.4    0.00     636    86.5
 270   14:50   90.1    10    6.2   222     11.3   931.4    0.00     607    86.8
 270   15:00   89.4    10    5.0   219     10.8   931.4    0.00     578    87.2
 270   15:10   88.3    10    5.1   192      9.3   931.4    0.00     547    87.5
 270   15:20   88.4    10    5.1   236      9.2   931.2    0.00     515    87.8
 270   15:30   87.5    10    5.6   250      8.5   931.1    0.00     483    88.1
 270   15:40   86.9    11    6.0   259     11.0   931.1    0.00     448    88.4
 270   15:50   86.2    11    5.4   249     10.2   931.0    0.00     413    88.6
 270   16:00   85.3    11    4.2   249      7.8   931.0    0.00     378    88.9
 270   16:10   85.5    11    4.2   276      6.6   930.9    0.00     342    89.1
 270   16:20   85.3    11    4.7   273      7.7   930.9    0.00     306    89.3
 270   16:30   85.3    11    4.7   280      7.9   930.8    0.00     270    89.5
 270   16:40   85.4    11    5.1   270      8.7   930.8    0.00     236    89.7
 270   16:50   85.0    11    5.6   276      9.1   930.7    0.00     202    89.8
 270   17:00   84.2    12    5.2   280      8.6   930.7    0.00     170    89.9
 270   17:10   84.1    12    5.2   285      8.8   930.7    0.00     139    89.9
 270   17:20   83.9    12    4.4   292      6.3   930.6    0.00     110    90.0
 270   17:30   83.5    12    2.9   306      4.6   930.6    0.00      81    90.0
 270   17:40   82.8    12    2.6   322      4.9   930.5    0.00      54    90.1
 270   17:50   81.2    12    5.1    36      5.9   930.5    0.00      30    90.1
 270   18:00   80.7    13    4.5    27      5.4   930.4    0.00      13    90.0
 270   18:10   81.6    12    4.5     6      5.4   930.4    0.00       3    89.9
 270   18:20   81.8    12    4.8    13      6.6   930.4    0.00       1    89.7
 270   18:30   81.3    12    5.1    18      6.6   930.4    0.00       0    89.6
 270   18:40   81.0    12    5.5    22      6.9   930.4    0.00       0    89.5
 270   18:50   81.0    12    5.3    18      6.6   930.5    0.00       0    89.3
 270   19:00   81.0    12    5.3    15      6.4   930.5    0.00       0    89.1
 270   19:10   80.9    12    6.3    18      8.0   930.5    0.00       0    88.8
 270   19:20   80.9    12    5.2    16      6.9   930.6    0.00       0    88.6
 270   19:30   80.8    12    4.3    20      5.3   930.7    0.00       0    88.4
 270   19:40   81.0    12    4.7     9      6.2   930.7    0.00       0    88.2
 270   19:50   80.6    12    5.5    20      6.8   930.8    0.00       0    88.0
 270   20:00   80.8    12    5.4    19      6.4   930.8    0.00       0    87.7
 270   20:10   80.4    12    5.1    18      6.6   930.8    0.00       0    87.5
 270   20:20   80.9    12    5.0    14      6.2   930.8    0.00       0    87.3
 270   20:30   81.4    11    4.8    16      5.9   930.9    0.00       0    87.0
 270   20:40   81.8    11    4.6     4      6.1   930.9    0.00       0    86.7
 270   20:50   81.5    11    5.5   328      7.7   930.9    0.00       0    86.5
 270   21:00   80.9    12    5.6   315      7.5   930.9    0.00       0    86.3
 270   21:10   79.6    12    6.5   306      8.6   930.9    0.00       0    86.1
 270   21:20   79.2    12    5.3   319      6.4   930.9    0.00       0    85.8
 270   21:30   81.1    11    4.2   350      5.7   930.9    0.00       0    85.6
 270   21:40   81.5    11    4.4    19      6.1   930.9    0.00       0    85.4
 270   21:50   81.3    11    4.2     8      6.6   930.9    0.00       0    85.2
 270   22:00   81.2    11    4.1     0      5.7   930.9    0.00       0    85.0
 270   22:10   81.2    11    3.8   334      4.6   930.9    0.00       0    84.8
 270   22:20   80.3    12    3.8   318      5.3   930.8    0.00       0    84.5
 270   22:30   79.6    12    2.5   337      3.7   930.9    0.00       0    84.3
 270   22:40   80.5    11    1.8     3      2.8   930.9    0.00       0    84.1

Return to Highlands Peak graphs page.


Western Regional Climate Center,wrcc@dri.edu